sensor_id;sensor_type;location;lat;lon;timestamp;temperature;humidity
78704;SHT31;68034;51.966;5.676;2023-08-30T00:01:36;15.0;75.6
78704;SHT31;68034;51.966;5.676;2023-08-30T00:04:05;15.0;75.6
78704;SHT31;68034;51.966;5.676;2023-08-30T00:06:33;15.0;75.6
78704;SHT31;68034;51.966;5.676;2023-08-30T00:09:03;15.0;75.5
78704;SHT31;68034;51.966;5.676;2023-08-30T00:11:31;15.0;75.5
78704;SHT31;68034;51.966;5.676;2023-08-30T00:14:05;14.9;75.5
78704;SHT31;68034;51.966;5.676;2023-08-30T00:16:34;14.9;75.7
78704;SHT31;68034;51.966;5.676;2023-08-30T00:19:02;14.9;75.7
78704;SHT31;68034;51.966;5.676;2023-08-30T00:21:31;14.9;75.6
78704;SHT31;68034;51.966;5.676;2023-08-30T00:23:59;14.9;75.6
78704;SHT31;68034;51.966;5.676;2023-08-30T00:26:28;14.8;75.5
78704;SHT31;68034;51.966;5.676;2023-08-30T00:28:56;14.8;75.4
78704;SHT31;68034;51.966;5.676;2023-08-30T00:31:25;14.8;75.4
78704;SHT31;68034;51.966;5.676;2023-08-30T00:33:55;14.7;75.5
78704;SHT31;68034;51.966;5.676;2023-08-30T00:36:23;14.7;75.6
78704;SHT31;68034;51.966;5.676;2023-08-30T00:38:52;14.7;75.7
78704;SHT31;68034;51.966;5.676;2023-08-30T00:41:21;14.7;75.7
78704;SHT31;68034;51.966;5.676;2023-08-30T00:43:49;14.6;75.7
78704;SHT31;68034;51.966;5.676;2023-08-30T00:46:18;14.6;75.8
78704;SHT31;68034;51.966;5.676;2023-08-30T00:48:48;14.6;75.9
78704;SHT31;68034;51.966;5.676;2023-08-30T00:51:16;14.6;75.8
78704;SHT31;68034;51.966;5.676;2023-08-30T00:53:45;14.5;75.8
78704;SHT31;68034;51.966;5.676;2023-08-30T00:56:15;14.5;75.8
78704;SHT31;68034;51.966;5.676;2023-08-30T00:58:43;14.5;75.9
78704;SHT31;68034;51.966;5.676;2023-08-30T01:01:12;14.4;75.9
78704;SHT31;68034;51.966;5.676;2023-08-30T01:03:41;14.4;75.9
78704;SHT31;68034;51.966;5.676;2023-08-30T01:06:10;14.4;75.9
78704;SHT31;68034;51.966;5.676;2023-08-30T01:08:40;14.4;76.1
78704;SHT31;68034;51.966;5.676;2023-08-30T01:11:16;14.3;76.1
78704;SHT31;68034;51.966;5.676;2023-08-30T01:13:52;14.3;76.1
78704;SHT31;68034;51.966;5.676;2023-08-30T01:16:22;14.3;76.1
78704;SHT31;68034;51.966;5.676;2023-08-30T01:18:56;14.2;76.2
78704;SHT31;68034;51.966;5.676;2023-08-30T01:21:32;14.2;76.3
78704;SHT31;68034;51.966;5.676;2023-08-30T01:24:04;14.2;76.3
78704;SHT31;68034;51.966;5.676;2023-08-30T01:26:48;14.2;76.3
78704;SHT31;68034;51.966;5.676;2023-08-30T01:29:17;14.2;76.3
78704;SHT31;68034;51.966;5.676;2023-08-30T01:31:49;14.2;76.3
78704;SHT31;68034;51.966;5.676;2023-08-30T01:34:18;14.1;76.3
78704;SHT31;68034;51.966;5.676;2023-08-30T01:36:51;14.1;76.3
78704;SHT31;68034;51.966;5.676;2023-08-30T01:39:23;14.1;76.4
78704;SHT31;68034;51.966;5.676;2023-08-30T01:41:52;14.1;76.6
78704;SHT31;68034;51.966;5.676;2023-08-30T01:44:25;14.1;76.7
78704;SHT31;68034;51.966;5.676;2023-08-30T01:46:55;14.1;76.7
78704;SHT31;68034;51.966;5.676;2023-08-30T01:49:25;14.1;76.9
78704;SHT31;68034;51.966;5.676;2023-08-30T01:51:54;14.1;76.9
78704;SHT31;68034;51.966;5.676;2023-08-30T01:54:26;14.1;76.9
78704;SHT31;68034;51.966;5.676;2023-08-30T01:56:57;14.1;76.9
78704;SHT31;68034;51.966;5.676;2023-08-30T01:59:26;14.1;77.0
78704;SHT31;68034;51.966;5.676;2023-08-30T02:01:55;14.1;77.0
78704;SHT31;68034;51.966;5.676;2023-08-30T02:04:23;14.1;76.9
78704;SHT31;68034;51.966;5.676;2023-08-30T02:07:00;14.1;76.9
78704;SHT31;68034;51.966;5.676;2023-08-30T02:09:38;14.1;76.9
78704;SHT31;68034;51.966;5.676;2023-08-30T02:12:13;14.1;76.9
78704;SHT31;68034;51.966;5.676;2023-08-30T02:14:46;14.1;76.8
78704;SHT31;68034;51.966;5.676;2023-08-30T02:17:16;14.1;76.8
78704;SHT31;68034;51.966;5.676;2023-08-30T02:19:46;14.1;76.9
78704;SHT31;68034;51.966;5.676;2023-08-30T02:22:19;14.1;77.0
78704;SHT31;68034;51.966;5.676;2023-08-30T02:24:48;14.1;77.0
78704;SHT31;68034;51.966;5.676;2023-08-30T02:27:16;14.1;76.9
78704;SHT31;68034;51.966;5.676;2023-08-30T02:29:45;14.1;76.9
78704;SHT31;68034;51.966;5.676;2023-08-30T02:32:13;14.1;76.9
78704;SHT31;68034;51.966;5.676;2023-08-30T02:34:49;14.1;76.8
78704;SHT31;68034;51.966;5.676;2023-08-30T02:37:19;14.0;76.8
78704;SHT31;68034;51.966;5.676;2023-08-30T02:39:50;14.0;76.8
78704;SHT31;68034;51.966;5.676;2023-08-30T02:42:19;14.0;76.8
78704;SHT31;68034;51.966;5.676;2023-08-30T02:44:47;14.0;76.8
78704;SHT31;68034;51.966;5.676;2023-08-30T02:47:15;14.0;76.8
78704;SHT31;68034;51.966;5.676;2023-08-30T02:49:44;14.0;76.8
78704;SHT31;68034;51.966;5.676;2023-08-30T02:52:12;14.0;76.9
78704;SHT31;68034;51.966;5.676;2023-08-30T02:54:43;14.0;77.3
78704;SHT31;68034;51.966;5.676;2023-08-30T02:57:12;14.0;77.2
78704;SHT31;68034;51.966;5.676;2023-08-30T02:59:41;14.0;77.2
78704;SHT31;68034;51.966;5.676;2023-08-30T03:02:09;14.0;77.2
78704;SHT31;68034;51.966;5.676;2023-08-30T03:04:37;14.0;77.2
78704;SHT31;68034;51.966;5.676;2023-08-30T03:07:06;14.0;77.2
78704;SHT31;68034;51.966;5.676;2023-08-30T03:09:37;14.0;77.1
78704;SHT31;68034;51.966;5.676;2023-08-30T03:12:07;14.0;77.1
78704;SHT31;68034;51.966;5.676;2023-08-30T03:14:36;14.0;76.9
78704;SHT31;68034;51.966;5.676;2023-08-30T03:17:04;14.0;76.9
78704;SHT31;68034;51.966;5.676;2023-08-30T03:19:33;14.0;76.8
78704;SHT31;68034;51.966;5.676;2023-08-30T03:22:01;14.0;76.7
78704;SHT31;68034;51.966;5.676;2023-08-30T03:24:30;14.0;76.7
78704;SHT31;68034;51.966;5.676;2023-08-30T03:26:58;13.9;76.6
78704;SHT31;68034;51.966;5.676;2023-08-30T03:29:28;13.9;76.6
78704;SHT31;68034;51.966;5.676;2023-08-30T03:31:57;13.9;76.5
78704;SHT31;68034;51.966;5.676;2023-08-30T03:34:25;13.9;76.5
78704;SHT31;68034;51.966;5.676;2023-08-30T03:36:54;13.9;76.5
78704;SHT31;68034;51.966;5.676;2023-08-30T03:39:23;13.9;76.5
78704;SHT31;68034;51.966;5.676;2023-08-30T03:41:51;13.8;76.6
78704;SHT31;68034;51.966;5.676;2023-08-30T03:44:22;13.8;76.6
78704;SHT31;68034;51.966;5.676;2023-08-30T03:46:50;13.8;76.5
78704;SHT31;68034;51.966;5.676;2023-08-30T03:49:20;13.8;76.4
78704;SHT31;68034;51.966;5.676;2023-08-30T03:51:48;13.7;76.3
78704;SHT31;68034;51.966;5.676;2023-08-30T03:54:17;13.7;76.2
78704;SHT31;68034;51.966;5.676;2023-08-30T03:56:45;13.7;76.2
78704;SHT31;68034;51.966;5.676;2023-08-30T03:59:14;13.7;76.1
78704;SHT31;68034;51.966;5.676;2023-08-30T04:01:43;13.6;76.2
78704;SHT31;68034;51.966;5.676;2023-08-30T04:04:12;13.6;76.2
78704;SHT31;68034;51.966;5.676;2023-08-30T04:06:41;13.6;76.2
78704;SHT31;68034;51.966;5.676;2023-08-30T04:09:09;13.5;76.2
78704;SHT31;68034;51.966;5.676;2023-08-30T04:11:38;13.5;76.2
78704;SHT31;68034;51.966;5.676;2023-08-30T04:14:08;13.5;76.3
78704;SHT31;68034;51.966;5.676;2023-08-30T04:16:39;13.5;76.4
78704;SHT31;68034;51.966;5.676;2023-08-30T04:19:09;13.4;76.5
78704;SHT31;68034;51.966;5.676;2023-08-30T04:21:37;13.4;76.6
78704;SHT31;68034;51.966;5.676;2023-08-30T04:24:06;13.4;76.5
78704;SHT31;68034;51.966;5.676;2023-08-30T04:26:35;13.4;76.6
78704;SHT31;68034;51.966;5.676;2023-08-30T04:29:03;13.3;76.6
78704;SHT31;68034;51.966;5.676;2023-08-30T04:31:32;13.3;76.6
78704;SHT31;68034;51.966;5.676;2023-08-30T04:34:00;13.3;76.6
78704;SHT31;68034;51.966;5.676;2023-08-30T04:36:29;13.3;76.7
78704;SHT31;68034;51.966;5.676;2023-08-30T04:38:57;13.2;76.7
78704;SHT31;68034;51.966;5.676;2023-08-30T04:41:26;13.2;76.8
78704;SHT31;68034;51.966;5.676;2023-08-30T04:43:54;13.2;76.9
78704;SHT31;68034;51.966;5.676;2023-08-30T04:46:23;13.2;76.9
78704;SHT31;68034;51.966;5.676;2023-08-30T04:48:51;13.1;76.9
78704;SHT31;68034;51.966;5.676;2023-08-30T04:51:20;13.1;77.0
78704;SHT31;68034;51.966;5.676;2023-08-30T04:53:48;13.1;77.1
78704;SHT31;68034;51.966;5.676;2023-08-30T04:56:17;13.1;77.2
78704;SHT31;68034;51.966;5.676;2023-08-30T04:58:47;13.1;77.2
78704;SHT31;68034;51.966;5.676;2023-08-30T05:01:16;13.1;77.3
78704;SHT31;68034;51.966;5.676;2023-08-30T05:03:45;13.0;77.3
78704;SHT31;68034;51.966;5.676;2023-08-30T05:06:13;13.0;77.3
78704;SHT31;68034;51.966;5.676;2023-08-30T05:08:42;13.0;77.3
78704;SHT31;68034;51.966;5.676;2023-08-30T05:11:11;13.0;77.4
78704;SHT31;68034;51.966;5.676;2023-08-30T05:13:39;13.0;77.5
78704;SHT31;68034;51.966;5.676;2023-08-30T05:16:10;12.9;77.5
78704;SHT31;68034;51.966;5.676;2023-08-30T05:18:40;12.9;77.5
78704;SHT31;68034;51.966;5.676;2023-08-30T05:21:09;12.9;77.7
78704;SHT31;68034;51.966;5.676;2023-08-30T05:23:37;12.9;77.7
78704;SHT31;68034;51.966;5.676;2023-08-30T05:26:08;12.9;77.8
78704;SHT31;68034;51.966;5.676;2023-08-30T05:28:39;12.9;77.9
78704;SHT31;68034;51.966;5.676;2023-08-30T05:31:09;12.9;78.3
78704;SHT31;68034;51.966;5.676;2023-08-30T05:33:38;12.8;78.4
78704;SHT31;68034;51.966;5.676;2023-08-30T05:36:06;12.8;78.5
78704;SHT31;68034;51.966;5.676;2023-08-30T05:38:35;12.8;78.4
78704;SHT31;68034;51.966;5.676;2023-08-30T05:41:03;12.8;78.4
78704;SHT31;68034;51.966;5.676;2023-08-30T05:43:34;12.8;78.5
78704;SHT31;68034;51.966;5.676;2023-08-30T05:46:03;12.8;78.7
78704;SHT31;68034;51.966;5.676;2023-08-30T05:48:33;12.8;78.8
78704;SHT31;68034;51.966;5.676;2023-08-30T05:51:02;12.8;79.0
78704;SHT31;68034;51.966;5.676;2023-08-30T05:53:30;12.9;79.2
78704;SHT31;68034;51.966;5.676;2023-08-30T05:55:59;12.9;79.4
78704;SHT31;68034;51.966;5.676;2023-08-30T05:58:27;12.9;79.6
78704;SHT31;68034;51.966;5.676;2023-08-30T06:00:56;12.9;79.7
78704;SHT31;68034;51.966;5.676;2023-08-30T06:03:26;13.0;79.8
78704;SHT31;68034;51.966;5.676;2023-08-30T06:05:54;13.0;79.9
78704;SHT31;68034;51.966;5.676;2023-08-30T06:08:23;13.0;80.1
78704;SHT31;68034;51.966;5.676;2023-08-30T06:10:51;13.0;80.1
78704;SHT31;68034;51.966;5.676;2023-08-30T06:13:20;13.1;80.2
78704;SHT31;68034;51.966;5.676;2023-08-30T06:15:52;13.1;80.2
78704;SHT31;68034;51.966;5.676;2023-08-30T06:18:21;13.1;80.3
78704;SHT31;68034;51.966;5.676;2023-08-30T06:20:50;13.1;80.4
78704;SHT31;68034;51.966;5.676;2023-08-30T06:23:19;13.1;80.6
78704;SHT31;68034;51.966;5.676;2023-08-30T06:25:55;13.2;80.7
78704;SHT31;68034;51.966;5.676;2023-08-30T06:28:24;13.2;80.8
78704;SHT31;68034;51.966;5.676;2023-08-30T06:30:52;13.2;80.9
78704;SHT31;68034;51.966;5.676;2023-08-30T06:33:21;13.2;80.9
78704;SHT31;68034;51.966;5.676;2023-08-30T06:35:49;13.3;81.1
78704;SHT31;68034;51.966;5.676;2023-08-30T06:38:22;13.3;81.2
78704;SHT31;68034;51.966;5.676;2023-08-30T06:40:50;13.3;81.2
78704;SHT31;68034;51.966;5.676;2023-08-30T06:43:20;13.3;81.2
78704;SHT31;68034;51.966;5.676;2023-08-30T06:45:49;13.4;81.3
78704;SHT31;68034;51.966;5.676;2023-08-30T06:48:17;13.4;81.3
78704;SHT31;68034;51.966;5.676;2023-08-30T06:50:45;13.4;81.2
78704;SHT31;68034;51.966;5.676;2023-08-30T06:53:14;13.4;81.1
78704;SHT31;68034;51.966;5.676;2023-08-30T06:55:43;13.4;81.1
78704;SHT31;68034;51.966;5.676;2023-08-30T06:58:11;13.4;81.1
78704;SHT31;68034;51.966;5.676;2023-08-30T07:00:40;13.5;81.1
78704;SHT31;68034;51.966;5.676;2023-08-30T07:03:10;13.5;81.1
78704;SHT31;68034;51.966;5.676;2023-08-30T07:05:39;13.5;81.1
78704;SHT31;68034;51.966;5.676;2023-08-30T07:08:09;13.5;81.1
78704;SHT31;68034;51.966;5.676;2023-08-30T07:10:38;13.5;81.1
78704;SHT31;68034;51.966;5.676;2023-08-30T07:13:06;13.4;81.0
78704;SHT31;68034;51.966;5.676;2023-08-30T07:15:37;13.4;81.1
78704;SHT31;68034;51.966;5.676;2023-08-30T07:18:07;13.4;81.1
78704;SHT31;68034;51.966;5.676;2023-08-30T07:20:38;13.4;81.3
78704;SHT31;68034;51.966;5.676;2023-08-30T07:23:07;13.4;81.7
78704;SHT31;68034;51.966;5.676;2023-08-30T07:25:37;13.3;81.7
78704;SHT31;68034;51.966;5.676;2023-08-30T07:28:06;13.3;82.0
78704;SHT31;68034;51.966;5.676;2023-08-30T07:30:34;13.3;82.0
78704;SHT31;68034;51.966;5.676;2023-08-30T07:33:04;13.2;82.2
78704;SHT31;68034;51.966;5.676;2023-08-30T07:35:33;13.2;82.6
78704;SHT31;68034;51.966;5.676;2023-08-30T07:38:01;13.1;82.9
78704;SHT31;68034;51.966;5.676;2023-08-30T07:40:30;13.1;83.1
78704;SHT31;68034;51.966;5.676;2023-08-30T07:43:00;13.1;83.4
78704;SHT31;68034;51.966;5.676;2023-08-30T07:45:28;13.0;83.6
78704;SHT31;68034;51.966;5.676;2023-08-30T07:47:57;13.0;83.9
78704;SHT31;68034;51.966;5.676;2023-08-30T07:50:25;13.0;84.2
78704;SHT31;68034;51.966;5.676;2023-08-30T07:52:54;13.0;84.4
78704;SHT31;68034;51.966;5.676;2023-08-30T07:55:23;12.9;84.7
78704;SHT31;68034;51.966;5.676;2023-08-30T07:57:51;12.9;85.0
78704;SHT31;68034;51.966;5.676;2023-08-30T08:00:22;12.9;84.9
78704;SHT31;68034;51.966;5.676;2023-08-30T08:02:53;12.9;85.4
78704;SHT31;68034;51.966;5.676;2023-08-30T08:05:21;12.9;85.6
78704;SHT31;68034;51.966;5.676;2023-08-30T08:07:52;12.8;86.1
78704;SHT31;68034;51.966;5.676;2023-08-30T08:10:21;12.8;86.1
78704;SHT31;68034;51.966;5.676;2023-08-30T08:12:49;12.8;86.5
78704;SHT31;68034;51.966;5.676;2023-08-30T08:15:18;12.8;86.6
78704;SHT31;68034;51.966;5.676;2023-08-30T08:17:46;12.8;86.8
78704;SHT31;68034;51.966;5.676;2023-08-30T08:20:16;12.8;86.9
78704;SHT31;68034;51.966;5.676;2023-08-30T08:22:44;12.8;87.2
78704;SHT31;68034;51.966;5.676;2023-08-30T08:25:13;12.8;87.3
78704;SHT31;68034;51.966;5.676;2023-08-30T08:27:42;12.8;87.5
78704;SHT31;68034;51.966;5.676;2023-08-30T08:30:14;12.8;87.8
78704;SHT31;68034;51.966;5.676;2023-08-30T08:32:45;12.8;87.9
78704;SHT31;68034;51.966;5.676;2023-08-30T08:35:14;12.8;88.0
78704;SHT31;68034;51.966;5.676;2023-08-30T08:37:43;12.8;87.7
78704;SHT31;68034;51.966;5.676;2023-08-30T08:40:12;12.8;87.7
78704;SHT31;68034;51.966;5.676;2023-08-30T08:42:42;12.8;87.9
78704;SHT31;68034;51.966;5.676;2023-08-30T08:45:12;12.8;88.5
78704;SHT31;68034;51.966;5.676;2023-08-30T08:47:45;12.8;88.5
78704;SHT31;68034;51.966;5.676;2023-08-30T08:50:14;12.8;88.3
78704;SHT31;68034;51.966;5.676;2023-08-30T08:52:43;12.8;88.9
78704;SHT31;68034;51.966;5.676;2023-08-30T08:55:12;12.9;89.0
78704;SHT31;68034;51.966;5.676;2023-08-30T08:57:42;12.9;88.9
78704;SHT31;68034;51.966;5.676;2023-08-30T09:00:15;12.9;89.0
78704;SHT31;68034;51.966;5.676;2023-08-30T09:02:48;12.9;89.1
78704;SHT31;68034;51.966;5.676;2023-08-30T09:05:19;12.9;89.4
78704;SHT31;68034;51.966;5.676;2023-08-30T09:07:48;12.9;89.4
78704;SHT31;68034;51.966;5.676;2023-08-30T09:10:20;12.9;89.6
78704;SHT31;68034;51.966;5.676;2023-08-30T09:12:48;12.9;89.9
78704;SHT31;68034;51.966;5.676;2023-08-30T09:15:17;12.9;90.0
78704;SHT31;68034;51.966;5.676;2023-08-30T09:17:45;13.0;89.9
78704;SHT31;68034;51.966;5.676;2023-08-30T09:20:15;13.0;89.8
78704;SHT31;68034;51.966;5.676;2023-08-30T09:22:46;13.0;90.0
78704;SHT31;68034;51.966;5.676;2023-08-30T09:25:25;13.0;90.1
78704;SHT31;68034;51.966;5.676;2023-08-30T09:27:58;13.0;90.5
78704;SHT31;68034;51.966;5.676;2023-08-30T09:30:27;13.1;90.8
78704;SHT31;68034;51.966;5.676;2023-08-30T09:33:02;13.1;90.9
78704;SHT31;68034;51.966;5.676;2023-08-30T09:35:31;13.1;90.8
78704;SHT31;68034;51.966;5.676;2023-08-30T09:38:00;13.1;91.1
78704;SHT31;68034;51.966;5.676;2023-08-30T09:40:29;13.1;91.1
78704;SHT31;68034;51.966;5.676;2023-08-30T09:42:59;13.1;91.4
78704;SHT31;68034;51.966;5.676;2023-08-30T09:45:30;13.2;91.3
78704;SHT31;68034;51.966;5.676;2023-08-30T09:48:00;13.2;91.2
78704;SHT31;68034;51.966;5.676;2023-08-30T09:50:33;13.2;91.6
78704;SHT31;68034;51.966;5.676;2023-08-30T09:53:07;13.3;91.8
78704;SHT31;68034;51.966;5.676;2023-08-30T09:55:36;13.3;91.9
78704;SHT31;68034;51.966;5.676;2023-08-30T09:58:06;13.4;92.2
78704;SHT31;68034;51.966;5.676;2023-08-30T10:00:35;13.4;92.3
78704;SHT31;68034;51.966;5.676;2023-08-30T10:03:04;13.5;92.4
78704;SHT31;68034;51.966;5.676;2023-08-30T10:05:33;13.5;92.5
78704;SHT31;68034;51.966;5.676;2023-08-30T10:08:04;13.6;92.2
78704;SHT31;68034;51.966;5.676;2023-08-30T10:10:36;13.6;92.6
78704;SHT31;68034;51.966;5.676;2023-08-30T10:13:06;13.7;92.6
78704;SHT31;68034;51.966;5.676;2023-08-30T10:15:40;13.8;92.6
78704;SHT31;68034;51.966;5.676;2023-08-30T10:18:15;13.8;92.7
78704;SHT31;68034;51.966;5.676;2023-08-30T10:20:49;13.9;92.6
78704;SHT31;68034;51.966;5.676;2023-08-30T10:23:21;13.9;92.7
78704;SHT31;68034;51.966;5.676;2023-08-30T10:25:52;14.0;92.8
78704;SHT31;68034;51.966;5.676;2023-08-30T10:28:23;14.0;92.6
78704;SHT31;68034;51.966;5.676;2023-08-30T10:30:53;14.1;92.7
78704;SHT31;68034;51.966;5.676;2023-08-30T10:33:23;14.1;92.8
78704;SHT31;68034;51.966;5.676;2023-08-30T10:36:02;14.2;93.1
78704;SHT31;68034;51.966;5.676;2023-08-30T10:38:29;14.3;93.7
78704;SHT31;68034;51.966;5.676;2023-08-30T10:41:10;14.4;94.0
78704;SHT31;68034;51.966;5.676;2023-08-30T10:43:51;14.5;94.6
78704;SHT31;68034;51.966;5.676;2023-08-30T10:46:31;14.6;94.5
78704;SHT31;68034;51.966;5.676;2023-08-30T10:49:11;14.7;94.5
78704;SHT31;68034;51.966;5.676;2023-08-30T10:51:41;14.8;94.2
78704;SHT31;68034;51.966;5.676;2023-08-30T10:54:15;14.9;93.8
78704;SHT31;68034;51.966;5.676;2023-08-30T10:56:53;14.9;93.7
78704;SHT31;68034;51.966;5.676;2023-08-30T10:59:23;15.0;93.2
78704;SHT31;68034;51.966;5.676;2023-08-30T11:01:53;15.1;92.8
78704;SHT31;68034;51.966;5.676;2023-08-30T11:04:23;15.1;92.9
78704;SHT31;68034;51.966;5.676;2023-08-30T11:06:51;15.2;93.4
78704;SHT31;68034;51.966;5.676;2023-08-30T11:09:23;15.3;93.7
78704;SHT31;68034;51.966;5.676;2023-08-30T11:11:52;15.4;93.3
78704;SHT31;68034;51.966;5.676;2023-08-30T11:14:20;15.4;92.9
78704;SHT31;68034;51.966;5.676;2023-08-30T11:16:51;15.5;92.5
78704;SHT31;68034;51.966;5.676;2023-08-30T11:19:20;15.5;92.0
78704;SHT31;68034;51.966;5.676;2023-08-30T11:21:48;15.5;91.7
78704;SHT31;68034;51.966;5.676;2023-08-30T11:24:17;15.5;91.3
78704;SHT31;68034;51.966;5.676;2023-08-30T11:26:46;15.5;91.0
78704;SHT31;68034;51.966;5.676;2023-08-30T11:29:20;15.6;90.9
78704;SHT31;68034;51.966;5.676;2023-08-30T11:31:49;15.6;91.1
78704;SHT31;68034;51.966;5.676;2023-08-30T11:34:20;15.7;91.6
78704;SHT31;68034;51.966;5.676;2023-08-30T11:36:50;15.7;91.7
78704;SHT31;68034;51.966;5.676;2023-08-30T11:39:20;15.8;91.4
78704;SHT31;68034;51.966;5.676;2023-08-30T11:41:50;15.8;91.2
78704;SHT31;68034;51.966;5.676;2023-08-30T11:44:19;15.9;91.2
78704;SHT31;68034;51.966;5.676;2023-08-30T11:46:50;15.9;91.1
78704;SHT31;68034;51.966;5.676;2023-08-30T11:49:23;16.0;91.5
78704;SHT31;68034;51.966;5.676;2023-08-30T11:51:52;16.1;91.6
78704;SHT31;68034;51.966;5.676;2023-08-30T11:54:23;16.2;91.3
78704;SHT31;68034;51.966;5.676;2023-08-30T11:56:52;16.3;90.9
78704;SHT31;68034;51.966;5.676;2023-08-30T11:59:21;16.3;90.7
78704;SHT31;68034;51.966;5.676;2023-08-30T12:01:52;16.4;89.9
78704;SHT31;68034;51.966;5.676;2023-08-30T12:04:23;16.4;88.9
78704;SHT31;68034;51.966;5.676;2023-08-30T12:06:55;16.4;87.8
78704;SHT31;68034;51.966;5.676;2023-08-30T12:09:23;16.3;87.1
78704;SHT31;68034;51.966;5.676;2023-08-30T12:12:08;16.3;86.9
78704;SHT31;68034;51.966;5.676;2023-08-30T12:14:38;16.2;86.8
78704;SHT31;68034;51.966;5.676;2023-08-30T12:17:08;16.2;86.9
78704;SHT31;68034;51.966;5.676;2023-08-30T12:19:38;16.2;87.0
78704;SHT31;68034;51.966;5.676;2023-08-30T12:22:08;16.2;87.1
78704;SHT31;68034;51.966;5.676;2023-08-30T12:24:44;16.2;87.3
78704;SHT31;68034;51.966;5.676;2023-08-30T12:27:13;16.2;87.7
78704;SHT31;68034;51.966;5.676;2023-08-30T12:29:43;16.2;87.5
78704;SHT31;68034;51.966;5.676;2023-08-30T12:32:12;16.2;87.3
78704;SHT31;68034;51.966;5.676;2023-08-30T12:34:41;16.3;87.2
78704;SHT31;68034;51.966;5.676;2023-08-30T12:37:09;16.3;86.7
78704;SHT31;68034;51.966;5.676;2023-08-30T12:39:38;16.3;86.4
78704;SHT31;68034;51.966;5.676;2023-08-30T12:42:06;16.3;86.3
78704;SHT31;68034;51.966;5.676;2023-08-30T12:44:35;16.4;86.1
78704;SHT31;68034;51.966;5.676;2023-08-30T12:47:04;16.4;85.8
78704;SHT31;68034;51.966;5.676;2023-08-30T12:49:32;16.5;85.7
78704;SHT31;68034;51.966;5.676;2023-08-30T12:52:01;16.5;85.6
78704;SHT31;68034;51.966;5.676;2023-08-30T12:54:29;16.6;85.4
78704;SHT31;68034;51.966;5.676;2023-08-30T12:56:58;16.7;85.9
78704;SHT31;68034;51.966;5.676;2023-08-30T12:59:26;16.9;85.8
78704;SHT31;68034;51.966;5.676;2023-08-30T13:01:55;17.0;85.6
78704;SHT31;68034;51.966;5.676;2023-08-30T13:04:23;17.2;85.3
78704;SHT31;68034;51.966;5.676;2023-08-30T13:06:54;17.4;85.1
78704;SHT31;68034;51.966;5.676;2023-08-30T13:09:22;17.5;84.7
78704;SHT31;68034;51.966;5.676;2023-08-30T13:11:52;17.7;84.2
78704;SHT31;68034;51.966;5.676;2023-08-30T13:14:20;17.9;83.6
78704;SHT31;68034;51.966;5.676;2023-08-30T13:16:49;18.0;82.9
78704;SHT31;68034;51.966;5.676;2023-08-30T13:19:17;18.1;82.6
78704;SHT31;68034;51.966;5.676;2023-08-30T13:21:46;18.3;81.6
78704;SHT31;68034;51.966;5.676;2023-08-30T13:24:14;18.4;81.2
78704;SHT31;68034;51.966;5.676;2023-08-30T13:26:43;18.5;80.1
78704;SHT31;68034;51.966;5.676;2023-08-30T13:29:11;18.5;79.2
78704;SHT31;68034;51.966;5.676;2023-08-30T13:31:41;18.6;78.4
78704;SHT31;68034;51.966;5.676;2023-08-30T13:34:10;18.6;78.1
78704;SHT31;68034;51.966;5.676;2023-08-30T13:36:39;18.6;77.6
78704;SHT31;68034;51.966;5.676;2023-08-30T13:39:07;18.6;77.3
78704;SHT31;68034;51.966;5.676;2023-08-30T13:41:36;18.6;76.8
78704;SHT31;68034;51.966;5.676;2023-08-30T13:44:05;18.6;76.4
78704;SHT31;68034;51.966;5.676;2023-08-30T13:46:33;18.6;75.6
78704;SHT31;68034;51.966;5.676;2023-08-30T13:49:02;18.6;76.0
78704;SHT31;68034;51.966;5.676;2023-08-30T13:51:31;18.6;75.4
78704;SHT31;68034;51.966;5.676;2023-08-30T13:54:00;18.5;75.1
78704;SHT31;68034;51.966;5.676;2023-08-30T13:56:28;18.5;74.8
78704;SHT31;68034;51.966;5.676;2023-08-30T13:58:58;18.5;74.8
78704;SHT31;68034;51.966;5.676;2023-08-30T14:01:27;18.4;74.7
78704;SHT31;68034;51.966;5.676;2023-08-30T14:03:55;18.4;74.8
78704;SHT31;68034;51.966;5.676;2023-08-30T14:06:24;18.4;74.9
78704;SHT31;68034;51.966;5.676;2023-08-30T14:08:52;18.3;74.8
78704;SHT31;68034;51.966;5.676;2023-08-30T14:11:21;18.3;74.6
78704;SHT31;68034;51.966;5.676;2023-08-30T14:13:49;18.3;75.2
78704;SHT31;68034;51.966;5.676;2023-08-30T14:16:18;18.3;75.6
78704;SHT31;68034;51.966;5.676;2023-08-30T14:18:46;18.3;76.1
78704;SHT31;68034;51.966;5.676;2023-08-30T14:21:15;18.3;75.9
78704;SHT31;68034;51.966;5.676;2023-08-30T14:23:45;18.4;75.8
78704;SHT31;68034;51.966;5.676;2023-08-30T14:26:14;18.4;75.9
78704;SHT31;68034;51.966;5.676;2023-08-30T14:28:43;18.4;75.5
78704;SHT31;68034;51.966;5.676;2023-08-30T14:31:11;18.4;75.3
78704;SHT31;68034;51.966;5.676;2023-08-30T14:33:42;18.5;75.3
78704;SHT31;68034;51.966;5.676;2023-08-30T14:36:13;18.5;74.9
78704;SHT31;68034;51.966;5.676;2023-08-30T14:38:42;18.5;74.6
78704;SHT31;68034;51.966;5.676;2023-08-30T14:41:11;18.5;74.0
78704;SHT31;68034;51.966;5.676;2023-08-30T14:43:42;18.5;73.7
78704;SHT31;68034;51.966;5.676;2023-08-30T14:46:10;18.5;73.1
78704;SHT31;68034;51.966;5.676;2023-08-30T14:48:42;18.5;73.2
78704;SHT31;68034;51.966;5.676;2023-08-30T14:51:10;18.5;72.7
78704;SHT31;68034;51.966;5.676;2023-08-30T14:53:39;18.5;73.0
78704;SHT31;68034;51.966;5.676;2023-08-30T14:56:08;18.5;73.2
78704;SHT31;68034;51.966;5.676;2023-08-30T14:58:38;18.5;73.1
78704;SHT31;68034;51.966;5.676;2023-08-30T15:01:06;18.5;72.8
78704;SHT31;68034;51.966;5.676;2023-08-30T15:03:35;18.5;72.8
78704;SHT31;68034;51.966;5.676;2023-08-30T15:06:03;18.5;72.2
78704;SHT31;68034;51.966;5.676;2023-08-30T15:08:32;18.5;72.2
78704;SHT31;68034;51.966;5.676;2023-08-30T15:11:01;18.4;71.8
78704;SHT31;68034;51.966;5.676;2023-08-30T15:13:29;18.4;71.8
78704;SHT31;68034;51.966;5.676;2023-08-30T15:15:58;18.3;72.1
78704;SHT31;68034;51.966;5.676;2023-08-30T15:18:27;18.3;72.2
78704;SHT31;68034;51.966;5.676;2023-08-30T15:20:55;18.3;72.3
78704;SHT31;68034;51.966;5.676;2023-08-30T15:23:26;18.3;72.4
78704;SHT31;68034;51.966;5.676;2023-08-30T15:25:54;18.3;72.4
78704;SHT31;68034;51.966;5.676;2023-08-30T15:28:23;18.3;72.3
78704;SHT31;68034;51.966;5.676;2023-08-30T15:30:54;18.2;72.2
78704;SHT31;68034;51.966;5.676;2023-08-30T15:33:23;18.2;72.2
78704;SHT31;68034;51.966;5.676;2023-08-30T15:35:56;18.1;71.9
78704;SHT31;68034;51.966;5.676;2023-08-30T15:38:25;18.1;71.8
78704;SHT31;68034;51.966;5.676;2023-08-30T15:40:55;18.0;72.1
78704;SHT31;68034;51.966;5.676;2023-08-30T15:43:24;17.9;72.1
78704;SHT31;68034;51.966;5.676;2023-08-30T15:45:53;17.8;72.2
78704;SHT31;68034;51.966;5.676;2023-08-30T15:48:21;17.7;72.6
78704;SHT31;68034;51.966;5.676;2023-08-30T15:50:50;17.6;73.1
78704;SHT31;68034;51.966;5.676;2023-08-30T15:53:19;17.5;73.7
78704;SHT31;68034;51.966;5.676;2023-08-30T15:55:47;17.4;74.3
78704;SHT31;68034;51.966;5.676;2023-08-30T15:58:16;17.2;75.3
78704;SHT31;68034;51.966;5.676;2023-08-30T16:00:45;17.2;76.0
78704;SHT31;68034;51.966;5.676;2023-08-30T16:03:16;17.1;76.6
78704;SHT31;68034;51.966;5.676;2023-08-30T16:05:45;17.0;77.1
78704;SHT31;68034;51.966;5.676;2023-08-30T16:08:13;17.0;77.5
78704;SHT31;68034;51.966;5.676;2023-08-30T16:10:42;16.9;77.8
78704;SHT31;68034;51.966;5.676;2023-08-30T16:13:12;16.9;78.2
78704;SHT31;68034;51.966;5.676;2023-08-30T16:15:41;16.8;78.7
78704;SHT31;68034;51.966;5.676;2023-08-30T16:18:10;16.8;79.1